createdAt,value
2023-04-18T00:00:49.319Z,8.20
2023-04-18T00:03:17.035Z,6.57
2023-04-18T00:05:48.203Z,7.33
2023-04-18T00:08:15.836Z,6.60
2023-04-18T00:10:44.198Z,6.23
2023-04-18T00:13:12.017Z,5.57
2023-04-18T00:15:39.542Z,6.20
2023-04-18T00:18:08.257Z,7.50
2023-04-18T00:20:38.812Z,5.70
2023-04-18T00:23:07.791Z,6.40
2023-04-18T00:25:35.313Z,7.17
2023-04-18T00:28:02.806Z,7.37
2023-04-18T00:30:30.283Z,6.43
2023-04-18T00:32:57.787Z,6.40
2023-04-18T00:35:25.505Z,7.50
2023-04-18T00:37:52.983Z,7.10
2023-04-18T00:40:21.815Z,7.43
2023-04-18T00:42:49.264Z,6.47
2023-04-18T00:45:16.768Z,7.27
2023-04-18T00:47:44.335Z,6.60
2023-04-18T00:50:13.408Z,7.70
2023-04-18T00:52:41.183Z,6.70
2023-04-18T00:55:09.790Z,7.47
2023-04-18T00:57:38.604Z,6.97
2023-04-18T01:00:09.769Z,7.00
2023-04-18T01:02:37.785Z,7.23
2023-04-18T01:05:06.006Z,6.67
2023-04-18T01:07:33.528Z,7.80
2023-04-18T01:10:01.430Z,7.17
2023-04-18T01:12:28.913Z,7.30
2023-04-18T01:14:58.751Z,7.30
2023-04-18T01:17:28.193Z,6.97
2023-04-18T01:19:56.568Z,7.60
2023-04-18T01:22:24.525Z,8.13
2023-04-18T01:24:53.318Z,7.80
2023-04-18T01:27:20.798Z,7.80
2023-04-18T01:29:48.228Z,8.17
2023-04-18T01:32:17.541Z,7.10
2023-04-18T01:34:45.030Z,7.57
2023-04-18T01:37:12.473Z,7.37
2023-04-18T01:39:39.947Z,7.30
2023-04-18T01:42:08.758Z,7.50
2023-04-18T01:44:36.222Z,6.73
2023-04-18T01:47:03.715Z,6.43
2023-04-18T01:49:31.228Z,7.27
2023-04-18T01:51:58.689Z,6.37
2023-04-18T01:54:26.112Z,7.53
2023-04-18T01:56:53.585Z,6.80
2023-04-18T01:59:22.376Z,7.70
2023-04-18T02:01:49.858Z,7.47
2023-04-18T02:04:17.507Z,8.30
2023-04-18T02:06:45.164Z,7.80
2023-04-18T02:09:12.581Z,8.63
2023-04-18T02:11:40.091Z,7.90
2023-04-18T02:14:07.555Z,7.70
2023-04-18T02:16:36.602Z,7.87
2023-04-18T02:19:04.697Z,8.00
2023-04-18T02:21:32.170Z,8.27
2023-04-18T02:23:59.601Z,7.60
2023-04-18T02:26:27.062Z,8.20
2023-04-18T02:28:54.570Z,8.87
2023-04-18T02:31:22.094Z,7.33
2023-04-18T02:33:50.922Z,8.70
2023-04-18T02:36:18.375Z,7.77
2023-04-18T02:38:45.886Z,8.43
2023-04-18T02:41:17.242Z,8.33
2023-04-18T02:43:44.682Z,8.07
2023-04-18T02:46:12.186Z,9.73
2023-04-18T02:48:39.660Z,8.67
2023-04-18T02:51:09.266Z,9.20
2023-04-18T02:53:36.803Z,9.30
2023-04-18T02:56:04.379Z,8.43
2023-04-18T02:58:34.658Z,9.20
2023-04-18T03:01:05.025Z,8.70
2023-04-18T03:03:32.541Z,8.47
2023-04-18T03:06:00.249Z,9.50
2023-04-18T03:08:29.043Z,7.90
2023-04-18T03:10:56.566Z,9.07
2023-04-18T03:13:23.985Z,8.83
2023-04-18T03:15:51.841Z,9.93
2023-04-18T03:18:19.324Z,9.17
2023-04-18T03:20:46.770Z,9.17
2023-04-18T03:23:14.236Z,8.93
2023-04-18T03:25:43.025Z,9.30
2023-04-18T03:28:10.479Z,9.30
2023-04-18T03:30:37.936Z,8.50
2023-04-18T03:33:05.378Z,9.97
2023-04-18T03:35:32.868Z,10.50
2023-04-18T03:38:00.346Z,10.77
2023-04-18T03:40:27.856Z,9.73
2023-04-18T03:42:56.670Z,10.40
2023-04-18T03:45:24.090Z,10.23
2023-04-18T03:47:51.599Z,11.40
2023-04-18T03:50:19.076Z,9.77
2023-04-18T03:52:46.531Z,10.60
2023-04-18T03:55:14.358Z,10.07
2023-04-18T03:57:41.784Z,11.40
2023-04-18T04:00:12.531Z,10.70
2023-04-18T04:02:40.299Z,10.73
2023-04-18T04:05:08.917Z,13.00
2023-04-18T04:07:36.479Z,12.23
2023-04-18T04:10:04.005Z,10.90
2023-04-18T04:12:31.484Z,10.90
2023-04-18T04:14:58.917Z,12.37
2023-04-18T04:17:27.836Z,12.43
2023-04-18T04:19:55.381Z,11.40
2023-04-18T04:22:22.820Z,12.53
2023-04-18T04:24:50.235Z,12.07
2023-04-18T04:27:18.714Z,12.40
2023-04-18T04:29:46.203Z,10.80
2023-04-18T04:32:13.768Z,10.50
2023-04-18T04:34:42.576Z,11.63
2023-04-18T04:37:10.171Z,11.80
2023-04-18T04:39:37.647Z,11.97
2023-04-18T04:42:05.361Z,11.00
2023-04-18T04:44:33.326Z,11.40
2023-04-18T04:47:00.781Z,11.30
2023-04-18T04:49:28.226Z,11.43
2023-04-18T04:51:57.067Z,11.30
2023-04-18T04:54:24.594Z,11.40
2023-04-18T04:56:52.092Z,11.20
2023-04-18T04:59:19.614Z,11.77
2023-04-18T05:01:47.437Z,12.20
2023-04-18T05:04:15.279Z,9.73
2023-04-18T05:06:43.035Z,11.20
2023-04-18T05:09:11.803Z,10.73
2023-04-18T05:11:39.269Z,9.80
2023-04-18T05:14:06.728Z,9.80
2023-04-18T05:16:34.242Z,11.13
2023-04-18T05:19:01.714Z,9.43
2023-04-18T05:21:29.408Z,11.23
2023-04-18T05:23:56.865Z,9.67
2023-04-18T05:26:25.805Z,8.93
2023-04-18T05:28:53.293Z,9.67
2023-04-18T05:31:20.944Z,9.40
2023-04-18T05:33:48.392Z,9.00
2023-04-18T05:36:16.220Z,9.20
2023-04-18T05:38:43.720Z,9.93
2023-04-18T05:41:11.164Z,9.20
2023-04-18T05:43:40.202Z,8.43
2023-04-18T05:46:09.040Z,12.53
2023-04-18T05:48:36.548Z,8.47
2023-04-18T05:51:04.849Z,9.47
2023-04-18T05:53:32.345Z,9.57
2023-04-18T05:55:59.878Z,8.70
2023-04-18T05:58:28.635Z,8.90
2023-04-18T06:00:57.445Z,9.13
2023-04-18T06:03:25.101Z,8.47
2023-04-18T06:05:52.872Z,8.20
2023-04-18T06:08:20.479Z,9.27
2023-04-18T06:10:47.959Z,9.07
2023-04-18T06:13:15.427Z,9.00
2023-04-18T06:15:42.896Z,8.83
2023-04-18T06:18:11.814Z,8.47
2023-04-18T06:20:39.734Z,8.40
2023-04-18T06:23:08.159Z,7.07
2023-04-18T06:25:35.644Z,8.63
2023-04-18T06:28:03.125Z,8.20
2023-04-18T06:30:30.632Z,8.90
2023-04-18T06:32:58.104Z,9.00
2023-04-18T06:35:26.964Z,9.17
2023-04-18T06:37:54.478Z,8.43
2023-04-18T06:40:21.971Z,10.00
2023-04-18T06:42:49.429Z,8.00
2023-04-18T06:45:17.219Z,8.60
2023-04-18T06:47:44.758Z,7.03
2023-04-18T06:50:12.516Z,7.37
2023-04-18T06:52:44.405Z,8.60
2023-04-18T06:55:12.752Z,7.77
2023-04-18T06:57:41.473Z,7.67
2023-04-18T07:00:10.444Z,7.63
2023-04-18T07:02:39.279Z,7.40
2023-04-18T07:05:07.606Z,7.77
2023-04-18T07:07:35.719Z,8.20
2023-04-18T07:10:06.695Z,7.27
2023-04-18T07:12:34.719Z,8.67
2023-04-18T07:15:03.323Z,7.23
2023-04-18T07:17:30.866Z,8.00
2023-04-18T07:19:59.367Z,7.80
2023-04-18T07:22:26.834Z,8.17
2023-04-18T07:24:54.262Z,8.47
2023-04-18T07:27:23.121Z,6.77
2023-04-18T07:29:50.576Z,8.03
2023-04-18T07:32:18.113Z,7.00
2023-04-18T07:34:45.624Z,7.27
2023-04-18T07:37:14.935Z,6.47
2023-04-18T07:39:42.655Z,6.90
2023-04-18T07:42:11.204Z,7.93
2023-04-18T07:44:40.190Z,7.10
2023-04-18T07:47:10.161Z,6.40
2023-04-18T07:49:37.779Z,7.27
2023-04-18T07:52:05.885Z,6.70
2023-04-18T07:54:33.324Z,6.30
2023-04-18T07:57:00.928Z,6.37
2023-04-18T07:59:28.630Z,6.97
2023-04-18T08:01:57.478Z,6.77
2023-04-18T08:04:25.817Z,6.53
2023-04-18T08:06:58.353Z,6.57
2023-04-18T08:09:26.052Z,6.37
2023-04-18T08:11:55.073Z,6.93
2023-04-18T08:14:22.553Z,5.57
2023-04-18T08:16:50.007Z,6.33
2023-04-18T08:19:18.768Z,6.20
2023-04-18T08:21:46.253Z,6.10
2023-04-18T08:24:13.699Z,5.37
2023-04-18T08:26:41.178Z,6.00
2023-04-18T08:29:08.648Z,5.50
2023-04-18T08:31:36.145Z,5.73
2023-04-18T08:34:05.099Z,5.70
2023-04-18T08:36:34.224Z,5.80
2023-04-18T08:39:01.830Z,6.27
2023-04-18T08:41:31.546Z,6.20
2023-04-18T08:43:59.178Z,5.83
2023-04-18T08:46:27.259Z,6.03
2023-04-18T08:48:58.437Z,5.63
2023-04-18T08:51:26.054Z,6.93
2023-04-18T08:53:56.648Z,5.93
2023-04-18T08:56:25.956Z,6.07
2023-04-18T08:58:53.514Z,5.03
2023-04-18T09:01:21.379Z,6.10
2023-04-18T09:03:49.025Z,5.53
2023-04-18T09:06:19.039Z,5.73
2023-04-18T09:08:58.682Z,6.37
2023-04-18T09:11:28.724Z,5.83
2023-04-18T09:13:58.784Z,6.90
2023-04-18T09:16:28.142Z,6.90
2023-04-18T09:19:13.142Z,6.97
2023-04-18T09:21:41.891Z,5.47
2023-04-18T09:24:23.564Z,6.90
2023-04-18T09:26:53.610Z,6.30
2023-04-18T09:29:22.970Z,6.33
2023-04-18T09:31:59.701Z,5.60
2023-04-18T09:34:27.798Z,7.20
2023-04-18T09:37:09.118Z,6.90
2023-04-18T09:39:39.892Z,6.27
2023-04-18T09:42:07.888Z,5.93
2023-04-18T09:44:35.370Z,5.90
2023-04-18T09:47:02.982Z,6.60
2023-04-18T09:49:30.474Z,6.00
2023-04-18T09:51:57.942Z,5.43
2023-04-18T09:54:28.051Z,5.83
2023-04-18T09:56:58.733Z,5.80
2023-04-18T09:59:35.161Z,5.33
2023-04-18T10:02:03.824Z,4.70
2023-04-18T10:04:32.369Z,5.50
2023-04-18T10:07:00.210Z,5.07
2023-04-18T10:09:33.058Z,4.50
2023-04-18T10:12:03.211Z,5.33
2023-04-18T10:14:33.376Z,6.63
2023-04-18T10:17:01.019Z,5.23
2023-04-18T10:19:30.419Z,5.27
2023-04-18T10:21:59.134Z,5.03
2023-04-18T10:24:49.424Z,5.63
2023-04-18T10:27:18.773Z,5.27
2023-04-18T10:29:50.776Z,5.10
2023-04-18T10:32:19.321Z,6.07
2023-04-18T10:34:47.915Z,5.40
2023-04-18T10:37:15.416Z,4.90
2023-04-18T10:39:51.072Z,6.20
2023-04-18T10:42:20.079Z,5.40
2023-04-18T10:45:17.827Z,6.60
2023-04-18T10:47:45.501Z,5.20
2023-04-18T10:50:13.161Z,5.10
2023-04-18T10:52:41.622Z,4.60
2023-04-18T10:55:12.398Z,4.47
2023-04-18T10:57:42.959Z,5.03
2023-04-18T11:00:15.190Z,5.27
2023-04-18T11:02:50.022Z,4.73
2023-04-18T11:05:22.647Z,5.00
2023-04-18T11:07:50.394Z,4.40
2023-04-18T11:10:19.032Z,3.90
2023-04-18T11:12:48.282Z,4.40
2023-04-18T11:15:17.766Z,4.10
2023-04-18T11:17:45.570Z,4.13
2023-04-18T11:20:14.774Z,5.30
2023-04-18T11:22:47.031Z,5.93
2023-04-18T11:25:14.935Z,5.20
2023-04-18T11:27:44.160Z,5.10
2023-04-18T11:30:14.195Z,4.53
2023-04-18T11:32:41.853Z,4.40
2023-04-18T11:35:10.524Z,5.03
2023-04-18T11:37:38.549Z,4.67
2023-04-18T11:40:07.564Z,4.73
2023-04-18T11:42:35.928Z,4.80
2023-04-18T11:45:03.993Z,4.60
2023-04-18T11:47:34.799Z,4.20
2023-04-18T11:50:03.207Z,4.40
2023-04-18T11:52:31.478Z,4.43
2023-04-18T11:55:12.951Z,4.20
2023-04-18T11:57:40.817Z,4.43
2023-04-18T12:00:10.660Z,4.20
2023-04-18T12:02:43.736Z,4.00
2023-04-18T12:05:12.245Z,3.90
2023-04-18T12:07:41.672Z,4.60
2023-04-18T12:10:10.928Z,3.53
2023-04-18T12:12:38.419Z,3.73
2023-04-18T12:15:09.238Z,4.63
2023-04-18T12:17:37.382Z,3.83
2023-04-18T12:20:10.141Z,3.73
2023-04-18T12:22:39.887Z,4.00
2023-04-18T12:25:22.837Z,4.00
2023-04-18T12:27:57.819Z,4.47
2023-04-18T12:30:27.312Z,3.77
2023-04-18T12:32:56.706Z,3.53
2023-04-18T12:35:26.323Z,4.17
2023-04-18T12:37:55.020Z,3.77
2023-04-18T12:40:23.229Z,3.80
2023-04-18T12:42:51.469Z,3.77
2023-04-18T12:45:19.834Z,4.80
2023-04-18T12:47:48.857Z,3.57
2023-04-18T12:50:18.069Z,3.77
2023-04-18T12:52:47.306Z,3.67
2023-04-18T12:55:15.527Z,4.10
2023-04-18T12:57:43.703Z,3.80
2023-04-18T13:00:13.033Z,3.80
2023-04-18T13:02:42.182Z,3.50
2023-04-18T13:05:11.231Z,4.07
2023-04-18T13:07:40.526Z,3.63
2023-04-18T13:10:11.072Z,3.70
2023-04-18T13:12:38.942Z,2.83
2023-04-18T13:15:07.774Z,3.20
2023-04-18T13:17:36.643Z,3.37
2023-04-18T13:20:06.446Z,2.73
2023-04-18T13:22:34.372Z,2.73
2023-04-18T13:25:01.875Z,2.90
2023-04-18T13:27:30.779Z,3.07
2023-04-18T13:29:58.473Z,2.40
2023-04-18T13:32:26.395Z,3.30
2023-04-18T13:34:55.964Z,2.97
2023-04-18T13:37:24.172Z,3.80
2023-04-18T13:39:51.646Z,3.83
2023-04-18T13:42:19.336Z,2.77
2023-04-18T13:44:48.181Z,3.83
2023-04-18T13:47:15.738Z,2.50
2023-04-18T13:49:43.228Z,3.60
2023-04-18T13:52:10.670Z,3.40
2023-04-18T13:54:38.214Z,4.50
2023-04-18T13:57:11.254Z,3.50
2023-04-18T13:59:39.930Z,4.07
2023-04-18T14:02:09.690Z,3.60
2023-04-18T14:04:37.686Z,3.40
2023-04-18T14:07:06.146Z,3.80
2023-04-18T14:09:33.753Z,4.00
2023-04-18T14:12:01.963Z,3.77
2023-04-18T14:14:29.636Z,4.60
2023-04-18T14:16:57.145Z,4.23
2023-04-18T14:19:26.161Z,4.00
2023-04-18T14:21:53.641Z,4.30
2023-04-18T14:24:21.223Z,4.40
2023-04-18T14:26:48.842Z,4.77
2023-04-18T14:29:16.642Z,5.37
2023-04-18T14:31:44.425Z,5.50
2023-04-18T14:34:11.977Z,4.83
2023-04-18T14:36:41.513Z,5.13
2023-04-18T14:39:08.999Z,6.50
2023-04-18T14:41:36.474Z,6.80
2023-04-18T14:44:04.299Z,6.10
2023-04-18T14:46:33.409Z,5.50
2023-04-18T14:49:01.026Z,7.30
2023-04-18T14:51:28.476Z,10.10
2023-04-18T14:53:57.278Z,8.00
2023-04-18T14:56:24.813Z,8.47
2023-04-18T14:58:52.342Z,6.33
2023-04-18T15:01:19.835Z,7.00
2023-04-18T15:03:47.611Z,8.10
2023-04-18T15:06:15.310Z,9.30
2023-04-18T15:08:44.064Z,6.97
2023-04-18T15:11:13.523Z,6.83
2023-04-18T15:13:41.043Z,6.97
2023-04-18T15:16:09.005Z,7.00
2023-04-18T15:18:36.826Z,6.57
2023-04-18T15:21:04.529Z,6.20
2023-04-18T15:23:32.091Z,6.23
2023-04-18T15:26:00.137Z,6.10
2023-04-18T15:28:29.461Z,6.10
2023-04-18T15:30:56.933Z,6.60
2023-04-18T15:33:25.115Z,6.20
2023-04-18T15:35:52.638Z,6.60
2023-04-18T15:38:20.171Z,6.20
2023-04-18T15:40:47.719Z,6.40
2023-04-18T15:43:17.053Z,6.30
2023-04-18T15:45:46.793Z,6.80
2023-04-18T15:48:14.369Z,6.57
2023-04-18T15:50:42.082Z,7.00
2023-04-18T15:53:09.600Z,6.80
2023-04-18T15:55:37.092Z,6.07
2023-04-18T15:58:04.949Z,7.00
2023-04-18T16:00:32.403Z,6.63
2023-04-18T16:03:01.324Z,7.10
2023-04-18T16:05:28.920Z,7.30
2023-04-18T16:07:58.049Z,6.80
2023-04-18T16:10:25.513Z,7.40
2023-04-18T16:12:53.532Z,6.20
2023-04-18T16:15:22.334Z,6.00
2023-04-18T16:17:49.832Z,6.50
2023-04-18T16:20:19.044Z,6.70
2023-04-18T16:22:46.513Z,6.40
2023-04-18T16:25:14.387Z,6.60
2023-04-18T16:27:42.490Z,7.10
2023-04-18T16:30:10.920Z,6.57
2023-04-18T16:32:38.915Z,6.23
2023-04-18T16:35:07.732Z,7.17
2023-04-18T16:37:36.695Z,6.27
2023-04-18T16:40:05.484Z,6.73
2023-04-18T16:42:32.959Z,7.80
2023-04-18T16:45:02.623Z,8.50
2023-04-18T16:47:30.254Z,6.23
2023-04-18T16:49:57.745Z,6.37
2023-04-18T16:52:25.519Z,5.63
2023-04-18T16:54:54.322Z,6.00
2023-04-18T16:57:21.763Z,6.37
2023-04-18T16:59:49.229Z,5.13
2023-04-18T17:02:16.838Z,4.70
2023-04-18T17:04:44.459Z,4.47
2023-04-18T17:07:11.978Z,4.83
2023-04-18T17:09:39.479Z,5.10
2023-04-18T17:12:08.495Z,5.80
2023-04-18T17:14:37.060Z,5.57
2023-04-18T17:17:04.580Z,5.00
2023-04-18T17:19:32.014Z,4.97
2023-04-18T17:22:00.182Z,4.90
2023-04-18T17:24:27.786Z,4.97
2023-04-18T17:26:57.532Z,5.10
2023-04-18T17:29:26.652Z,6.80
2023-04-18T17:31:54.180Z,5.80
2023-04-18T17:34:21.839Z,5.30
2023-04-18T17:36:50.441Z,4.67
2023-04-18T17:39:17.986Z,5.20
2023-04-18T17:41:46.178Z,5.50
2023-04-18T17:44:13.673Z,5.00
2023-04-18T17:46:42.556Z,5.33
2023-04-18T17:49:10.515Z,6.17
2023-04-18T17:51:37.982Z,5.50
2023-04-18T17:54:06.016Z,5.20
2023-04-18T17:56:33.457Z,6.30
2023-04-18T17:59:01.012Z,6.40
2023-04-18T18:01:30.388Z,6.47
2023-04-18T18:03:59.541Z,5.50
2023-04-18T18:06:27.734Z,4.80
2023-04-18T18:08:55.862Z,6.50
2023-04-18T18:11:23.720Z,6.40
2023-04-18T18:13:54.476Z,6.13
2023-04-18T18:16:22.722Z,6.23
2023-04-18T18:18:50.796Z,5.53
2023-04-18T18:21:19.727Z,6.43
2023-04-18T18:23:47.218Z,6.20
2023-04-18T18:26:14.711Z,7.90
2023-04-18T18:28:42.191Z,6.97
2023-04-18T18:31:09.698Z,7.80
2023-04-18T18:33:37.135Z,6.50
2023-04-18T18:36:05.465Z,6.40
2023-04-18T18:38:34.347Z,6.90
2023-04-18T18:41:03.796Z,6.40
2023-04-18T18:43:31.507Z,6.40
2023-04-18T18:45:59.107Z,6.50
2023-04-18T18:48:27.933Z,6.33
2023-04-18T18:50:56.420Z,6.27
2023-04-18T18:53:23.905Z,6.47
2023-04-18T18:55:52.728Z,6.50
2023-04-18T18:58:20.590Z,6.60
2023-04-18T19:00:48.214Z,7.00
2023-04-18T19:03:18.328Z,6.97
2023-04-18T19:05:46.033Z,6.63
2023-04-18T19:08:13.581Z,6.57
2023-04-18T19:10:41.836Z,6.50
2023-04-18T19:13:10.758Z,7.00
2023-04-18T19:15:38.430Z,7.50
2023-04-18T19:18:05.995Z,5.63
2023-04-18T19:20:33.552Z,6.70
2023-04-18T19:23:01.038Z,7.33
2023-04-18T19:25:28.675Z,6.23
2023-04-18T19:27:56.150Z,6.13
2023-04-18T19:30:25.070Z,7.60
2023-04-18T19:32:52.614Z,7.50
2023-04-18T19:35:20.344Z,7.63
2023-04-18T19:37:47.844Z,7.23
2023-04-18T19:40:15.352Z,7.00
2023-04-18T19:42:42.796Z,7.23
2023-04-18T19:45:14.969Z,7.77
2023-04-18T19:47:44.957Z,6.00
2023-04-18T19:50:12.557Z,6.23
2023-04-18T19:52:40.488Z,6.67
2023-04-18T19:55:08.903Z,8.00
2023-04-18T19:57:39.840Z,6.73
2023-04-18T20:00:08.797Z,6.27
2023-04-18T20:02:36.436Z,6.90
2023-04-18T20:05:07.309Z,6.60
2023-04-18T20:07:34.879Z,7.10
2023-04-18T20:10:04.198Z,6.30
2023-04-18T20:12:31.696Z,7.27
2023-04-18T20:14:59.257Z,6.50
2023-04-18T20:17:26.829Z,6.67
2023-04-18T20:19:57.039Z,6.00
2023-04-18T20:22:26.691Z,5.90
2023-04-18T20:24:57.002Z,7.93
2023-04-18T20:27:24.518Z,7.10
2023-04-18T20:29:51.982Z,6.00
2023-04-18T20:32:19.574Z,5.60
2023-04-18T20:34:47.521Z,6.37
2023-04-18T20:37:19.614Z,6.60
2023-04-18T20:39:48.447Z,5.80
2023-04-18T20:42:16.123Z,6.13
2023-04-18T20:44:46.560Z,6.13
2023-04-18T20:47:15.726Z,6.43
2023-04-18T20:49:43.577Z,5.50
2023-04-18T20:52:11.033Z,6.53
2023-04-18T20:54:38.482Z,6.13
2023-04-18T20:57:07.284Z,5.40
2023-04-18T20:59:34.731Z,6.37
2023-04-18T21:02:02.296Z,6.33
2023-04-18T21:04:30.253Z,6.10
2023-04-18T21:06:57.829Z,5.70
2023-04-18T21:09:25.301Z,6.67
2023-04-18T21:11:52.751Z,5.93
2023-04-18T21:14:21.557Z,5.83
2023-04-18T21:16:49.256Z,7.10
2023-04-18T21:19:16.717Z,5.63
2023-04-18T21:21:44.192Z,4.90
2023-04-18T21:24:11.744Z,5.90
2023-04-18T21:26:39.229Z,6.30
2023-04-18T21:29:06.807Z,6.13
2023-04-18T21:31:36.291Z,7.17
2023-04-18T21:34:04.822Z,6.20
2023-04-18T21:36:32.971Z,5.77
2023-04-18T21:39:01.394Z,6.73
2023-04-18T21:41:29.198Z,5.33
2023-04-18T21:43:56.736Z,5.63
2023-04-18T21:46:24.830Z,5.60
2023-04-18T21:48:53.741Z,5.20
2023-04-18T21:51:21.232Z,5.50
2023-04-18T21:53:48.694Z,5.37
2023-04-18T21:56:17.755Z,5.50
2023-04-18T21:58:45.207Z,6.20
2023-04-18T22:01:12.900Z,5.77
2023-04-18T22:03:40.747Z,4.93
2023-04-18T22:06:09.735Z,5.10
2023-04-18T22:08:37.255Z,5.07
2023-04-18T22:11:05.159Z,5.10
2023-04-18T22:13:33.635Z,4.23
2023-04-18T22:16:03.319Z,5.30
2023-04-18T22:18:33.513Z,4.57
2023-04-18T22:21:02.239Z,5.43
2023-04-18T22:23:31.454Z,5.40
2023-04-18T22:25:58.941Z,6.00
2023-04-18T22:28:27.789Z,4.43
2023-04-18T22:30:55.335Z,4.70
2023-04-18T22:33:22.863Z,5.53
2023-04-18T22:35:50.472Z,4.20
2023-04-18T22:38:18.040Z,5.03
2023-04-18T22:40:46.871Z,4.67
2023-04-18T22:43:14.346Z,4.10
2023-04-18T22:45:41.857Z,4.70
2023-04-18T22:48:12.093Z,5.03
2023-04-18T22:50:42.475Z,5.50
2023-04-18T22:53:10.444Z,4.63
2023-04-18T22:55:41.202Z,4.30
2023-04-18T22:58:10.811Z,4.50
2023-04-18T23:00:38.516Z,5.80
2023-04-18T23:03:06.162Z,4.07
2023-04-18T23:05:34.208Z,5.47
2023-04-18T23:08:01.905Z,3.73
2023-04-18T23:10:29.405Z,4.20
2023-04-18T23:12:57.381Z,4.20
2023-04-18T23:15:26.915Z,4.60
2023-04-18T23:17:54.679Z,3.83
2023-04-18T23:20:23.780Z,3.77
2023-04-18T23:22:51.716Z,4.93
2023-04-18T23:25:20.271Z,3.93
2023-04-18T23:27:47.803Z,5.10
2023-04-18T23:30:15.456Z,4.33
2023-04-18T23:32:44.333Z,4.10
2023-04-18T23:35:12.054Z,3.60
2023-04-18T23:37:39.574Z,4.03
2023-04-18T23:40:08.982Z,4.50
2023-04-18T23:42:36.951Z,4.10
2023-04-18T23:45:05.768Z,4.37
2023-04-18T23:47:33.392Z,5.40
2023-04-18T23:50:02.355Z,4.63
2023-04-18T23:52:29.897Z,5.73
2023-04-18T23:55:00.212Z,4.70
2023-04-18T23:57:27.745Z,5.10
2023-04-18T23:59:55.187Z,5.73
